Bookmark and Share
Track history (hours):
 

Minerva Grace

Last reported at 2014-Apr-18 05:08 UTC. Time now 2014-Apr-19 00:12 UTC.
Position N 38°42' W 009°57'.

Length 183 m; draft 8.2 m.

Type: Tanker. MMSI: 241193000.

NotesDate/timePositionNaut miles runAvg speedWind from/ knotsBaromVisibWave heightAir tempDewpointWater temp
2014-Apr-18 05:08N 38°42' W 009°57'1113.6
2014-Apr-18 04:18N 38°31' W 009°54'1013.5
2014-Apr-18 03:31N 38°20' W 009°51'1413.4
2014-Apr-18 02:31N 38°07' W 009°47'1313.4
2014-Apr-18 01:33N 37°55' W 009°43'1312.8
2014-Apr-18 00:33N 37°42' W 009°40'1312.7
2014-Apr-17 23:33N 37°30' W 009°37'1312.8
2014-Apr-17 22:34N 37°17' W 009°33'1312.9
2014-Apr-17 21:32N 37°05' W 009°29'1412.9
2014-Apr-17 20:27N 36°52' W 009°23'1112.8
2014-Apr-17 19:34N 36°42' W 009°15'1612.8
2014-Apr-17 18:18N 36°36' W 008°56'1013.2
2014-Apr-17 17:33N 36°33' W 008°45'1313.2
2014-Apr-17 16:33N 36°28' W 008°29'1313.3
2014-Apr-17 15:33N 36°24' W 008°14'1312.8
2014-Apr-17 14:33N 36°20' W 007°59'1313.0
2014-Apr-17 13:33N 36°15' W 007°43'1312.9
2014-Apr-17 12:32N 36°11' W 007°28'1313.2
2014-Apr-17 11:33N 36°07' W 007°13'1414.3
2014-Apr-17 10:33N 36°02' W 006°56'4013.4
2014-Apr-17 07:33N 35°58' W 006°07'1512.6
2014-Apr-17 06:22N 35°58' W 005°48'911.5
2014-Apr-17 05:33N 35°58' W 005°37'5 4.6
2014-Apr-17 04:27N 35°54' W 005°33'2 1.6
2014-Apr-17 03:29N 35°53' W 005°34'0 0.0
2014-Apr-16 23:11N 35°53' W 005°34'0 0.1
2014-Apr-16 22:09N 35°52' W 005°34'0 0.1
2014-Apr-16 21:21N 35°53' W 005°34'1 1.1
2014-Apr-16 20:34N 35°53' W 005°33'  
2014-Apr-14 15:32N 35°55' W 005°31'7 7.3
2014-Apr-14 14:34N 35°54' W 005°40'9612.0
2014-Apr-14 06:33N 36°03' W 007°39'10012.4
2014-Apr-13 22:29N 36°41' W 009°33'2311.6
2014-Apr-13 20:33N 37°02' W 009°43'1712.2
2014-Apr-13 19:11N 37°18' W 009°48'812.1
2014-Apr-13 18:32N 37°26' W 009°50'1212.1
2014-Apr-13 17:31N 37°38' W 009°53'1212.0
2014-Apr-13 16:33N 37°49' W 009°56'1111.4
2014-Apr-13 15:33N 38°00' W 010°00'1211.5
2014-Apr-13 14:32N 38°12' W 010°03'1111.5
2014-Apr-13 13:33N 38°23' W 010°07'1211.6
2014-Apr-13 12:33N 38°34' W 010°10'1211.6
2014-Apr-13 11:32N 38°46' W 010°12'1211.7
2014-Apr-13 10:28N 38°58' W 010°12'1111.5
2014-Apr-13 09:29N 39°09' W 010°12'  
2014-Apr-10 12:16N 50°14' W 001°39'913.2
2014-Apr-10 11:33N 50°16' W 001°24'1413.6
2014-Apr-10 10:33N 50°19' W 001°04'1313.2
2014-Apr-10 09:33N 50°23' W 000°44'1312.6
2014-Apr-10 08:33N 50°26' W 000°25'1712.3
2014-Apr-10 07:13N 50°30' E 000°00'811.7
2014-Apr-10 06:33N 50°32' E 000°12'1211.6
2014-Apr-10 05:33N 50°35' E 000°30'1211.7
2014-Apr-10 04:33N 50°42' E 000°45'1212.4
2014-Apr-10 03:33N 50°50' E 000°60'1313.2
2014-Apr-10 02:33N 50°58' E 001°16'1313.3
2014-Apr-10 01:33N 51°07' E 001°32'1212.4
2014-Apr-10 00:33N 51°15' E 001°47'1211.8
2014-Apr-09 23:33N 51°26' E 001°56'1111.5
2014-Apr-09 22:33N 51°34' E 002°08'1111.2
2014-Apr-09 21:33N 51°43' E 002°19'1111.1
2014-Apr-09 20:33N 51°52' E 002°31'1111.2
2014-Apr-09 19:33N 52°00' E 002°43'1010.2
2014-Apr-09 18:33N 52°03' E 002°59'1211.3
2014-Apr-09 17:31N 52°03' E 003°18'1111.5
2014-Apr-09 16:32N 52°03' E 003°36'1111.2
2014-Apr-09 15:33N 52°03' E 003°54'1010.0
2014-Apr-09 14:33N 51°58' E 004°08'8 7.9
2014-Apr-09 13:32N 51°53' E 004°18'0 0.3
2014-Apr-09 12:04N 51°53' E 004°17'0 0.0
2014-Apr-09 11:28N 51°53' E 004°17'0 0.0
2014-Apr-09 10:25N 51°53' E 004°17'0 0.0
2014-Apr-09 09:19N 51°53' E 004°17'0 0.0
2014-Apr-09 08:13N 51°53' E 004°17'0 0.0
2014-Apr-09 06:16N 51°53' E 004°17'0 0.0
2014-Apr-09 03:16N 51°53' E 004°17'0 0.0
2014-Apr-09 02:28N 51°53' E 004°17'0 0.0
2014-Apr-08 23:28N 51°53' E 004°17'0 0.0
2014-Apr-08 22:22N 51°53' E 004°17'0 0.0
2014-Apr-08 21:31N 51°53' E 004°17'0 0.0
2014-Apr-08 20:31N 51°53' E 004°17'0 0.0
2014-Apr-08 19:28N 51°53' E 004°17'0 0.0
2014-Apr-08 17:13N 51°53' E 004°17'0 0.0
2014-Apr-08 16:28N 51°53' E 004°17'0 0.0
2014-Apr-08 15:28N 51°53' E 004°17'0 0.0
2014-Apr-08 13:22N 51°53' E 004°17'0 0.0
2014-Apr-08 12:28N 51°53' E 004°17'0 0.0
2014-Apr-08 11:16N 51°53' E 004°17'0 0.0
2014-Apr-08 10:28N 51°53' E 004°17'0 0.0
2014-Apr-08 09:28N 51°53' E 004°17'0 0.0
2014-Apr-08 08:22N 51°53' E 004°17'0 0.0
2014-Apr-08 06:22N 51°53' E 004°17'0 0.0
2014-Apr-08 05:10N 51°53' E 004°17'  

Dump ship's entire track history

sailing weather and tide predictions

Minerva Grace — SVBN7 — position and weather